createdAt,value
2018-05-27T00:00:56.349Z,21.13
2018-05-27T00:01:56.307Z,21.13
2018-05-27T00:02:56.279Z,21.25
2018-05-27T00:03:56.253Z,21.37
2018-05-27T00:05:06.387Z,21.28
2018-05-27T00:05:56.216Z,21.34
2018-05-27T00:06:56.155Z,21.43
2018-05-27T00:07:56.154Z,21.32
2018-05-27T00:08:56.117Z,21.34
2018-05-27T00:09:56.210Z,21.44
2018-05-27T00:10:56.025Z,21.59
2018-05-27T00:11:55.984Z,21.69
2018-05-27T00:12:55.929Z,21.68
2018-05-27T00:13:55.901Z,21.68
2018-05-27T00:15:03.691Z,21.47
2018-05-27T00:16:03.499Z,21.47
2018-05-27T00:16:55.800Z,21.42
2018-05-27T00:17:55.753Z,21.46
2018-05-27T00:18:55.751Z,21.44
2018-05-27T00:19:55.782Z,21.52
2018-05-27T00:20:55.642Z,21.52
2018-05-27T00:21:55.634Z,21.40
2018-05-27T00:22:55.563Z,21.44
2018-05-27T00:23:55.566Z,21.40
2018-05-27T00:24:55.555Z,21.52
2018-05-27T00:25:55.456Z,21.53
2018-05-27T00:26:55.416Z,21.52
2018-05-27T00:27:55.434Z,21.52
2018-05-27T00:28:55.353Z,21.50
2018-05-27T00:29:55.314Z,21.46
2018-05-27T00:30:55.276Z,21.49
2018-05-27T00:31:55.232Z,21.49
2018-05-27T00:32:55.252Z,21.40
2018-05-27T00:33:55.183Z,21.31
2018-05-27T00:34:55.145Z,21.27
2018-05-27T00:36:06.235Z,21.28
2018-05-27T00:36:55.056Z,21.27
2018-05-27T00:37:55.102Z,21.28
2018-05-27T00:38:55.037Z,21.22
2018-05-27T00:39:55.593Z,21.22
2018-05-27T00:40:54.933Z,21.09
2018-05-27T00:41:54.883Z,21.04
2018-05-27T00:42:54.865Z,20.98
2018-05-27T00:43:54.810Z,20.94
2018-05-27T00:44:54.781Z,20.91
2018-05-27T00:45:54.742Z,20.91
2018-05-27T00:46:54.710Z,20.85
2018-05-27T00:47:54.678Z,20.88
2018-05-27T00:48:54.658Z,20.91
2018-05-27T00:49:54.608Z,20.94
2018-05-27T00:50:54.568Z,20.88
2018-05-27T00:51:54.516Z,20.94
2018-05-27T00:52:54.497Z,20.99
2018-05-27T00:53:54.476Z,21.03
2018-05-27T00:55:04.036Z,20.98
2018-05-27T00:55:54.371Z,21.17
2018-05-27T00:56:54.346Z,21.17
2018-05-27T00:57:54.543Z,21.13
2018-05-27T00:58:54.261Z,21.16
2018-05-27T00:59:54.266Z,21.13
2018-05-27T01:00:54.225Z,21.13
2018-05-27T01:01:54.162Z,21.19
2018-05-27T01:02:54.139Z,21.17
2018-05-27T01:03:54.115Z,21.12
2018-05-27T01:04:54.612Z,21.12
2018-05-27T01:05:54.036Z,21.09
2018-05-27T01:06:54.011Z,21.01
2018-05-27T01:07:53.974Z,21.03
2018-05-27T01:08:53.898Z,20.94
2018-05-27T01:09:53.904Z,20.88
2018-05-27T01:10:53.855Z,20.76
2018-05-27T01:11:53.800Z,20.77
2018-05-27T01:12:53.791Z,20.66
2018-05-27T01:13:53.743Z,20.54
2018-05-27T01:15:04.091Z,20.39
2018-05-27T01:15:53.770Z,20.31
2018-05-27T01:16:53.683Z,20.23
2018-05-27T01:17:53.644Z,20.05
2018-05-27T01:18:53.555Z,19.94
2018-05-27T01:19:53.520Z,19.87
2018-05-27T01:20:53.470Z,19.81
2018-05-27T01:21:53.453Z,19.81
2018-05-27T01:22:53.396Z,19.73
2018-05-27T01:23:53.391Z,19.77
2018-05-27T01:24:53.391Z,19.71
2018-05-27T01:25:53.298Z,19.50
2018-05-27T01:26:53.266Z,19.48
2018-05-27T01:27:53.221Z,19.51
2018-05-27T01:28:53.199Z,19.47
2018-05-27T01:29:53.178Z,19.37
2018-05-27T01:30:53.132Z,19.37
2018-05-27T01:31:53.070Z,19.31
2018-05-27T01:32:53.042Z,19.26
2018-05-27T01:34:03.745Z,19.26
2018-05-27T01:34:52.971Z,19.22
2018-05-27T01:35:52.941Z,19.10
2018-05-27T01:36:52.949Z,19.08
2018-05-27T01:38:07.181Z,19.11
2018-05-27T01:38:52.805Z,19.00
2018-05-27T01:39:52.818Z,18.99
2018-05-27T01:40:52.748Z,18.99
2018-05-27T01:41:52.744Z,18.88
2018-05-27T01:42:52.673Z,18.90
2018-05-27T01:43:52.653Z,18.78
2018-05-27T01:44:52.603Z,18.80
2018-05-27T01:45:52.576Z,18.75
2018-05-27T01:46:52.562Z,18.72
2018-05-27T01:47:52.514Z,18.70
2018-05-27T01:48:52.452Z,18.62
2018-05-27T01:49:52.429Z,18.65
2018-05-27T01:50:52.386Z,18.58
2018-05-27T01:51:52.351Z,18.55
2018-05-27T01:53:00.919Z,18.50
2018-05-27T01:54:01.915Z,18.41
2018-05-27T01:54:52.226Z,18.37
2018-05-27T01:55:52.214Z,18.30
2018-05-27T01:56:52.190Z,18.35
2018-05-27T01:57:52.138Z,18.30
2018-05-27T01:58:52.141Z,18.25
2018-05-27T01:59:52.076Z,18.20
2018-05-27T02:00:52.014Z,18.27
2018-05-27T02:01:51.980Z,18.32
2018-05-27T02:02:51.964Z,18.27
2018-05-27T02:03:51.907Z,18.20
2018-05-27T02:04:51.897Z,18.17
2018-05-27T02:05:51.823Z,18.17
2018-05-27T02:06:51.828Z,18.05
2018-05-27T02:07:51.755Z,18.07
2018-05-27T02:08:51.719Z,18.08
2018-05-27T02:09:51.718Z,18.11
2018-05-27T02:10:51.654Z,18.10
2018-05-27T02:11:51.620Z,18.08
2018-05-27T02:12:59.870Z,18.17
2018-05-27T02:13:51.524Z,18.02
2018-05-27T02:14:51.541Z,18.00
2018-05-27T02:15:51.510Z,18.00
2018-05-27T02:16:51.440Z,17.93
2018-05-27T02:17:51.394Z,18.05
2018-05-27T02:18:51.336Z,17.95
2018-05-27T02:19:51.302Z,17.87
2018-05-27T02:20:51.289Z,17.95
2018-05-27T02:21:51.297Z,17.89
2018-05-27T02:22:51.198Z,17.95
2018-05-27T02:23:51.168Z,17.82
2018-05-27T02:24:59.399Z,17.86
2018-05-27T02:25:51.101Z,17.84
2018-05-27T02:26:51.213Z,17.82
2018-05-27T02:27:51.014Z,17.82
2018-05-27T02:28:51.004Z,17.77
2018-05-27T02:29:50.938Z,17.72
2018-05-27T02:30:50.951Z,17.77
2018-05-27T02:31:50.866Z,17.68
2018-05-27T02:33:02.535Z,17.68
2018-05-27T02:33:51.074Z,17.71
2018-05-27T02:34:50.758Z,17.59
2018-05-27T02:35:51.275Z,17.63
2018-05-27T02:36:50.686Z,17.64
2018-05-27T02:37:50.644Z,17.58
2018-05-27T02:38:50.622Z,17.59
2018-05-27T02:39:50.553Z,17.63
2018-05-27T02:40:50.538Z,17.52
2018-05-27T02:41:50.485Z,17.51
2018-05-27T02:42:50.453Z,17.51
2018-05-27T02:43:50.471Z,17.48
2018-05-27T02:44:50.400Z,17.40
2018-05-27T02:45:50.356Z,17.34
2018-05-27T02:46:50.340Z,17.40
2018-05-27T02:47:50.262Z,17.38
2018-05-27T02:48:50.230Z,17.28
2018-05-27T02:49:50.219Z,17.38
2018-05-27T02:50:50.150Z,17.38
2018-05-27T02:51:50.114Z,17.31
2018-05-27T02:52:50.075Z,17.40
2018-05-27T02:53:50.087Z,17.44
2018-05-27T02:54:50.029Z,17.37
2018-05-27T02:55:49.967Z,17.48
2018-05-27T02:56:49.939Z,17.54
2018-05-27T02:57:49.900Z,17.48
2018-05-27T02:58:49.857Z,17.51
2018-05-27T02:59:49.846Z,17.41
2018-05-27T03:00:49.839Z,17.51
2018-05-27T03:01:49.787Z,17.38
2018-05-27T03:02:49.716Z,17.28
2018-05-27T03:03:49.686Z,17.30
2018-05-27T03:04:49.647Z,17.28
2018-05-27T03:05:49.629Z,17.23
2018-05-27T03:06:49.556Z,17.33
2018-05-27T03:07:49.537Z,17.16
2018-05-27T03:08:49.523Z,17.22
2018-05-27T03:09:49.487Z,17.18
2018-05-27T03:10:49.403Z,17.28
2018-05-27T03:11:59.943Z,17.28
2018-05-27T03:12:49.384Z,17.19
2018-05-27T03:13:49.288Z,17.18
2018-05-27T03:14:49.252Z,17.21
2018-05-27T03:15:49.217Z,17.19
2018-05-27T03:16:49.347Z,17.19
2018-05-27T03:17:49.190Z,17.15
2018-05-27T03:18:49.112Z,17.14
2018-05-27T03:19:49.069Z,17.16
2018-05-27T03:20:49.019Z,17.18
2018-05-27T03:21:49.014Z,17.22
2018-05-27T03:22:48.963Z,17.18
2018-05-27T03:23:48.969Z,17.19
2018-05-27T03:24:48.912Z,17.11
2018-05-27T03:25:48.852Z,17.04
2018-05-27T03:26:48.818Z,17.14
2018-05-27T03:27:48.785Z,17.03
2018-05-27T03:28:48.754Z,17.00
2018-05-27T03:29:48.718Z,17.03
2018-05-27T03:30:48.651Z,17.03
2018-05-27T03:32:00.176Z,16.98
2018-05-27T03:32:48.586Z,17.04
2018-05-27T03:33:48.537Z,17.00
2018-05-27T03:34:48.561Z,17.08
2018-05-27T03:35:48.459Z,17.08
2018-05-27T03:36:48.424Z,17.03
2018-05-27T03:37:48.413Z,17.06
2018-05-27T03:38:48.369Z,17.04
2018-05-27T03:39:48.348Z,17.22
2018-05-27T03:40:48.291Z,17.22
2018-05-27T03:41:48.244Z,17.19
2018-05-27T03:42:48.224Z,17.14
2018-05-27T03:43:48.182Z,17.15
2018-05-27T03:44:48.171Z,17.19
2018-05-27T03:45:48.125Z,17.16
2018-05-27T03:46:48.044Z,17.22
2018-05-27T03:47:48.005Z,17.16
2018-05-27T03:48:47.979Z,17.15
2018-05-27T03:49:47.950Z,17.22
2018-05-27T03:50:47.900Z,17.28
2018-05-27T03:51:55.869Z,17.28
2018-05-27T03:52:47.860Z,17.34
2018-05-27T03:53:47.802Z,17.43
2018-05-27T03:54:47.764Z,17.48
2018-05-27T03:55:47.759Z,17.52
2018-05-27T03:56:47.683Z,17.54
2018-05-27T03:57:47.672Z,17.56
2018-05-27T03:58:47.601Z,17.63
2018-05-27T03:59:47.576Z,17.63
2018-05-27T04:00:47.527Z,17.72
2018-05-27T04:01:47.489Z,17.72
2018-05-27T04:02:47.472Z,17.75
2018-05-27T04:03:47.434Z,17.84
2018-05-27T04:04:47.385Z,17.96
2018-05-27T04:05:47.341Z,17.99
2018-05-27T04:06:47.312Z,17.97
2018-05-27T04:07:47.269Z,18.07
2018-05-27T04:08:47.243Z,18.08
2018-05-27T04:09:47.220Z,18.23
2018-05-27T04:10:57.556Z,18.25
2018-05-27T04:11:47.132Z,18.37
2018-05-27T04:12:47.090Z,18.33
2018-05-27T04:13:47.167Z,18.42
2018-05-27T04:14:46.995Z,18.54
2018-05-27T04:15:47.013Z,18.50
2018-05-27T04:16:46.953Z,18.52
2018-05-27T04:17:46.901Z,18.69
2018-05-27T04:18:46.881Z,18.67
2018-05-27T04:19:46.816Z,18.80
2018-05-27T04:20:46.800Z,18.90
2018-05-27T04:21:46.769Z,18.82
2018-05-27T04:22:46.724Z,18.94
2018-05-27T04:23:46.699Z,19.00
2018-05-27T04:24:46.687Z,18.99
2018-05-27T04:25:46.645Z,19.08
2018-05-27T04:26:46.579Z,19.02
2018-05-27T04:27:46.567Z,19.13
2018-05-27T04:28:46.529Z,19.19
2018-05-27T04:29:46.447Z,19.29
2018-05-27T04:30:46.430Z,19.31
2018-05-27T04:31:46.386Z,19.28
2018-05-27T04:32:46.364Z,19.32
2018-05-27T04:33:46.325Z,19.29
2018-05-27T04:34:46.293Z,19.41
2018-05-27T04:35:46.249Z,19.40
2018-05-27T04:36:46.209Z,19.46
2018-05-27T04:37:46.202Z,19.86
2018-05-27T04:38:46.117Z,20.47
2018-05-27T04:39:46.116Z,21.07
2018-05-27T04:40:46.065Z,21.49
2018-05-27T04:41:46.029Z,22.03
2018-05-27T04:42:46.040Z,22.21
2018-05-27T04:43:45.963Z,22.54
2018-05-27T04:44:45.949Z,22.83
2018-05-27T04:45:45.906Z,23.13
2018-05-27T04:46:45.830Z,23.16
2018-05-27T04:47:45.808Z,23.27
2018-05-27T04:48:45.800Z,23.50
2018-05-27T04:49:45.759Z,23.54
2018-05-27T04:50:54.104Z,23.65
2018-05-27T04:51:45.685Z,23.73
2018-05-27T04:52:45.692Z,23.72
2018-05-27T04:53:45.640Z,23.36
2018-05-27T04:54:45.557Z,22.82
2018-05-27T04:55:45.551Z,22.46
2018-05-27T04:56:45.506Z,22.28
2018-05-27T04:57:45.451Z,22.21
2018-05-27T04:58:45.415Z,22.03
2018-05-27T04:59:45.418Z,21.90
2018-05-27T05:00:45.342Z,21.79
2018-05-27T05:01:45.325Z,21.84
2018-05-27T05:02:45.284Z,21.75
2018-05-27T05:03:45.260Z,21.75
2018-05-27T05:04:45.210Z,21.52
2018-05-27T05:05:45.248Z,21.31
2018-05-27T05:06:45.147Z,21.16
2018-05-27T05:07:45.127Z,21.17
2018-05-27T05:08:55.629Z,21.07
2018-05-27T05:09:45.029Z,21.07
2018-05-27T05:10:54.666Z,21.07
2018-05-27T05:11:44.965Z,21.07
2018-05-27T05:12:44.943Z,21.14
2018-05-27T05:13:45.030Z,21.28
2018-05-27T05:14:44.870Z,21.79
2018-05-27T05:15:44.823Z,22.30
2018-05-27T05:16:44.833Z,23.15
2018-05-27T05:17:44.756Z,23.90
2018-05-27T05:18:44.740Z,24.52
2018-05-27T05:19:44.696Z,24.95
2018-05-27T05:20:44.660Z,25.24
2018-05-27T05:21:44.619Z,25.70
2018-05-27T05:22:44.629Z,26.01
2018-05-27T05:23:44.564Z,26.25
2018-05-27T05:24:44.523Z,26.47
2018-05-27T05:25:44.486Z,26.58
2018-05-27T05:26:44.455Z,26.63
2018-05-27T05:27:44.523Z,26.73
2018-05-27T05:28:44.418Z,26.80
2018-05-27T05:29:44.367Z,27.09
2018-05-27T05:30:44.315Z,27.10
2018-05-27T05:31:44.279Z,27.59
2018-05-27T05:32:44.287Z,27.47
2018-05-27T05:33:44.214Z,27.36
2018-05-27T05:34:44.250Z,26.62
2018-05-27T05:35:44.178Z,26.54
2018-05-27T05:36:44.102Z,27.10
2018-05-27T05:37:44.082Z,27.25
2018-05-27T05:38:44.064Z,26.40
2018-05-27T05:39:44.014Z,25.94
2018-05-27T05:40:44.004Z,25.35
2018-05-27T05:41:43.960Z,24.76
2018-05-27T05:42:43.906Z,24.55
2018-05-27T05:43:43.933Z,24.34
2018-05-27T05:44:43.846Z,23.93
2018-05-27T05:45:43.852Z,23.87
2018-05-27T05:46:43.781Z,23.84
2018-05-27T05:47:43.760Z,23.76
2018-05-27T05:48:43.717Z,23.51
2018-05-27T05:49:43.673Z,23.65
2018-05-27T05:50:43.698Z,23.61
2018-05-27T05:51:43.633Z,23.60
2018-05-27T05:52:43.580Z,23.60
2018-05-27T05:53:43.571Z,23.28
2018-05-27T05:54:43.516Z,23.51
2018-05-27T05:55:43.509Z,23.36
2018-05-27T05:56:43.477Z,23.40
2018-05-27T05:57:43.429Z,23.38
2018-05-27T05:58:43.396Z,23.54
2018-05-27T05:59:43.352Z,23.68
2018-05-27T06:00:43.313Z,23.90
2018-05-27T06:01:43.292Z,24.34
2018-05-27T06:02:43.291Z,25.42
2018-05-27T06:03:43.296Z,26.76
2018-05-27T06:04:43.205Z,27.63
2018-05-27T06:05:43.163Z,28.25
2018-05-27T06:06:43.117Z,29.23
2018-05-27T06:07:43.080Z,29.65
2018-05-27T06:08:43.088Z,29.92
2018-05-27T06:09:43.017Z,30.57
2018-05-27T06:10:43.002Z,30.65
2018-05-27T06:11:42.955Z,30.37
2018-05-27T06:12:42.922Z,30.20
2018-05-27T06:13:42.898Z,30.22
2018-05-27T06:14:42.896Z,30.02
2018-05-27T06:15:42.824Z,30.31
2018-05-27T06:16:42.790Z,29.97
2018-05-27T06:17:42.823Z,29.95
2018-05-27T06:18:55.061Z,29.51
2018-05-27T06:19:42.700Z,29.95
2018-05-27T06:20:42.695Z,30.37
2018-05-27T06:21:42.621Z,30.31
2018-05-27T06:22:42.597Z,29.92
2018-05-27T06:23:42.628Z,30.02
2018-05-27T06:24:42.539Z,30.62
2018-05-27T06:25:42.545Z,31.07
2018-05-27T06:26:42.455Z,30.82
2018-05-27T06:27:42.422Z,29.86
2018-05-27T06:28:42.395Z,28.93
2018-05-27T06:29:42.362Z,28.49
2018-05-27T06:30:42.344Z,28.21
2018-05-27T06:31:42.357Z,28.37
2018-05-27T06:32:42.285Z,28.25
2018-05-27T06:33:42.265Z,28.68
2018-05-27T06:34:42.214Z,29.02
2018-05-27T06:35:42.183Z,29.49
2018-05-27T06:36:42.153Z,29.30
2018-05-27T06:37:42.158Z,29.80
2018-05-27T06:38:42.161Z,30.45
2018-05-27T06:39:42.074Z,30.45
2018-05-27T06:40:42.025Z,30.27
2018-05-27T06:41:50.393Z,30.34
2018-05-27T06:42:41.956Z,30.32
2018-05-27T06:43:42.008Z,30.27
2018-05-27T06:44:41.915Z,29.85
2018-05-27T06:45:41.880Z,30.51
2018-05-27T06:46:41.915Z,30.99
2018-05-27T06:47:41.833Z,31.21
2018-05-27T06:48:41.780Z,31.17
2018-05-27T06:49:41.746Z,31.25
2018-05-27T06:50:41.708Z,30.89
2018-05-27T06:51:41.681Z,31.62
2018-05-27T06:52:41.664Z,32.30
2018-05-27T06:53:41.692Z,32.72
2018-05-27T06:54:41.602Z,32.85
2018-05-27T06:55:41.569Z,32.74
2018-05-27T06:56:41.541Z,33.14
2018-05-27T06:57:41.510Z,33.81
2018-05-27T06:58:41.505Z,34.09
2018-05-27T06:59:41.456Z,33.93
2018-05-27T07:00:41.427Z,33.75
2018-05-27T07:01:41.415Z,33.03
2018-05-27T07:02:41.373Z,32.93
2018-05-27T07:03:41.339Z,33.54
2018-05-27T07:04:41.364Z,34.24
2018-05-27T07:05:51.706Z,34.70
2018-05-27T07:06:41.236Z,33.56
2018-05-27T07:07:41.214Z,33.19
2018-05-27T07:08:41.219Z,33.57
2018-05-27T07:09:41.154Z,32.93
2018-05-27T07:10:41.150Z,33.16
2018-05-27T07:11:41.135Z,33.94
2018-05-27T07:12:41.105Z,34.69
2018-05-27T07:13:41.063Z,35.26
2018-05-27T07:14:41.007Z,35.62
2018-05-27T07:15:40.978Z,36.15
2018-05-27T07:16:40.963Z,36.39
2018-05-27T07:17:40.922Z,36.66
2018-05-27T07:18:40.904Z,36.66
2018-05-27T07:19:40.887Z,36.80
2018-05-27T07:20:40.837Z,36.83
2018-05-27T07:21:40.852Z,36.09
2018-05-27T07:22:40.772Z,36.00
2018-05-27T07:23:40.757Z,36.09
2018-05-27T07:24:40.734Z,35.93
2018-05-27T07:25:40.709Z,35.82
2018-05-27T07:26:40.690Z,36.13
2018-05-27T07:27:40.664Z,36.32
2018-05-27T07:28:40.623Z,36.56
2018-05-27T07:29:40.606Z,35.75
2018-05-27T07:30:40.562Z,35.47
2018-05-27T07:31:40.568Z,35.56
2018-05-27T07:32:40.516Z,35.33
2018-05-27T07:33:40.481Z,34.46
2018-05-27T07:34:40.451Z,33.71
2018-05-27T07:35:40.435Z,33.19
2018-05-27T07:36:40.391Z,33.34
2018-05-27T07:37:40.407Z,33.28
2018-05-27T07:38:40.343Z,33.65
2018-05-27T07:39:40.342Z,34.10
2018-05-27T07:40:40.328Z,34.62
2018-05-27T07:41:40.293Z,34.70
2018-05-27T07:42:40.237Z,34.97
2018-05-27T07:43:40.209Z,35.44
2018-05-27T07:44:40.171Z,35.75
2018-05-27T07:45:40.152Z,36.23
2018-05-27T07:46:40.149Z,36.25
2018-05-27T07:47:40.142Z,36.31
2018-05-27T07:48:40.094Z,35.34
2018-05-27T07:49:40.052Z,34.85
2018-05-27T07:50:40.044Z,34.58
2018-05-27T07:51:40.026Z,33.98
2018-05-27T07:52:50.653Z,33.42
2018-05-27T07:53:39.966Z,32.69
2018-05-27T07:54:39.981Z,32.10
2018-05-27T07:55:39.874Z,32.14
2018-05-27T07:56:39.877Z,32.32
2018-05-27T07:57:39.842Z,32.32
2018-05-27T07:58:39.872Z,32.23
2018-05-27T07:59:39.793Z,32.28
2018-05-27T08:00:39.781Z,32.41
2018-05-27T08:01:39.736Z,33.09
2018-05-27T08:02:39.698Z,33.50
2018-05-27T08:03:39.708Z,33.94
2018-05-27T08:04:39.644Z,34.40
2018-05-27T08:05:39.612Z,34.56
2018-05-27T08:06:39.617Z,34.56
2018-05-27T08:07:39.550Z,33.98
2018-05-27T08:08:39.543Z,33.19
2018-05-27T08:09:39.542Z,32.62
2018-05-27T08:10:39.475Z,32.75
2018-05-27T08:11:39.461Z,33.54
2018-05-27T08:12:39.415Z,34.25
2018-05-27T08:13:39.470Z,34.24
2018-05-27T08:14:39.365Z,33.44
2018-05-27T08:15:39.344Z,32.89
2018-05-27T08:16:39.337Z,33.32
2018-05-27T08:17:39.297Z,33.03
2018-05-27T08:18:39.256Z,32.81
2018-05-27T08:19:39.259Z,32.82
2018-05-27T08:20:39.220Z,32.59
2018-05-27T08:21:39.199Z,32.65
2018-05-27T08:22:39.178Z,32.82
2018-05-27T08:23:39.133Z,32.99
2018-05-27T08:24:39.101Z,32.75
2018-05-27T08:25:39.147Z,32.87
2018-05-27T08:26:39.047Z,33.38
2018-05-27T08:27:39.016Z,33.56
2018-05-27T08:28:39.058Z,32.99
2018-05-27T08:29:38.978Z,33.18
2018-05-27T08:30:38.941Z,33.29
2018-05-27T08:31:38.947Z,33.76
2018-05-27T08:32:38.895Z,33.00
2018-05-27T08:33:38.862Z,32.88
2018-05-27T08:34:38.849Z,32.96
2018-05-27T08:35:38.807Z,33.23
2018-05-27T08:36:38.798Z,32.89
2018-05-27T08:37:38.786Z,32.89
2018-05-27T08:38:38.738Z,33.12
2018-05-27T08:39:38.734Z,33.47
2018-05-27T08:40:38.709Z,33.06
2018-05-27T08:41:38.683Z,32.52
2018-05-27T08:42:38.639Z,32.78
2018-05-27T08:43:38.631Z,32.88
2018-05-27T08:44:38.651Z,33.18
2018-05-27T08:45:38.563Z,32.92
2018-05-27T08:46:38.529Z,32.60
2018-05-27T08:47:38.511Z,32.92
2018-05-27T08:48:38.517Z,32.10
2018-05-27T08:49:38.483Z,31.93
2018-05-27T08:50:38.443Z,31.68
2018-05-27T08:51:38.409Z,32.38
2018-05-27T08:52:38.385Z,32.06
2018-05-27T08:53:38.403Z,32.50
2018-05-27T08:54:38.329Z,33.12
2018-05-27T08:55:38.311Z,33.39
2018-05-27T08:56:38.295Z,33.28
2018-05-27T08:57:38.263Z,33.45
2018-05-27T08:58:38.302Z,33.16
2018-05-27T08:59:38.259Z,32.94
2018-05-27T09:00:38.207Z,32.77
2018-05-27T09:01:38.166Z,32.26
2018-05-27T09:02:38.134Z,31.57
2018-05-27T09:03:38.144Z,31.04
2018-05-27T09:04:38.093Z,30.79
2018-05-27T09:05:38.107Z,30.73
2018-05-27T09:06:38.031Z,30.69
2018-05-27T09:07:38.020Z,30.37
2018-05-27T09:08:37.990Z,30.29
2018-05-27T09:09:37.943Z,30.15
2018-05-27T09:10:37.960Z,30.10
2018-05-27T09:11:37.916Z,30.13
2018-05-27T09:12:37.875Z,30.10
2018-05-27T09:13:37.866Z,30.04
2018-05-27T09:14:37.837Z,30.11
2018-05-27T09:15:37.802Z,30.31
2018-05-27T09:16:37.823Z,30.77
2018-05-27T09:17:37.778Z,31.13
2018-05-27T09:18:37.700Z,31.31
2018-05-27T09:19:37.684Z,31.36
2018-05-27T09:20:37.663Z,31.62
2018-05-27T09:21:37.631Z,31.96
2018-05-27T09:22:37.633Z,32.07
2018-05-27T09:23:37.571Z,32.38
2018-05-27T09:24:37.546Z,32.72
2018-05-27T09:25:37.507Z,33.26
2018-05-27T09:26:48.745Z,33.34
2018-05-27T09:27:37.461Z,32.84
2018-05-27T09:28:37.541Z,32.52
2018-05-27T09:29:37.427Z,32.28
2018-05-27T09:30:37.386Z,32.57
2018-05-27T09:31:37.362Z,32.63
2018-05-27T09:32:37.320Z,32.44
2018-05-27T09:33:37.310Z,32.29
2018-05-27T09:34:37.306Z,32.13
2018-05-27T09:35:37.239Z,32.32
2018-05-27T09:36:37.208Z,32.77
2018-05-27T09:37:37.205Z,32.51
2018-05-27T09:38:37.164Z,32.66
2018-05-27T09:39:37.132Z,32.59
2018-05-27T09:40:37.160Z,32.78
2018-05-27T09:41:37.085Z,32.97
2018-05-27T09:42:37.086Z,32.57
2018-05-27T09:43:37.033Z,32.99
2018-05-27T09:44:37.025Z,33.14
2018-05-27T09:45:36.999Z,33.42
2018-05-27T09:46:36.995Z,33.59
2018-05-27T09:47:36.955Z,33.57
2018-05-27T09:48:36.906Z,33.78
2018-05-27T09:49:36.883Z,33.56
2018-05-27T09:50:36.880Z,33.26
2018-05-27T09:51:36.891Z,33.54
2018-05-27T09:52:36.815Z,33.26
2018-05-27T09:53:36.792Z,32.51
2018-05-27T09:54:36.786Z,32.10
2018-05-27T09:55:36.753Z,32.11
2018-05-27T09:56:36.751Z,32.33
2018-05-27T09:57:36.764Z,32.04
2018-05-27T09:58:36.684Z,31.53
2018-05-27T09:59:36.655Z,31.68
2018-05-27T10:00:36.631Z,31.85
2018-05-27T10:01:36.606Z,32.00
2018-05-27T10:02:36.635Z,31.36
2018-05-27T10:03:36.558Z,31.47
2018-05-27T10:04:36.545Z,31.88
2018-05-27T10:05:36.517Z,32.10
2018-05-27T10:06:36.496Z,32.03
2018-05-27T10:07:36.476Z,31.72
2018-05-27T10:08:36.490Z,31.62
2018-05-27T10:09:36.415Z,31.80
2018-05-27T10:10:36.413Z,31.91
2018-05-27T10:11:36.363Z,32.15
2018-05-27T10:12:36.337Z,32.14
2018-05-27T10:13:36.318Z,32.52
2018-05-27T10:14:36.327Z,32.72
2018-05-27T10:15:36.261Z,32.57
2018-05-27T10:16:36.254Z,32.29
2018-05-27T10:17:36.222Z,32.04
2018-05-27T10:18:36.194Z,32.23
2018-05-27T10:19:36.191Z,32.08
2018-05-27T10:20:36.146Z,31.96
2018-05-27T10:21:36.121Z,32.06
2018-05-27T10:22:36.142Z,32.51
2018-05-27T10:23:36.077Z,32.47
2018-05-27T10:24:47.162Z,32.37
2018-05-27T10:25:49.882Z,32.88
2018-05-27T10:26:36.025Z,33.21
2018-05-27T10:27:36.108Z,33.21
2018-05-27T10:28:35.979Z,32.89
2018-05-27T10:29:35.973Z,33.16
2018-05-27T10:30:37.813Z,32.30
2018-05-27T10:31:35.886Z,32.59
2018-05-27T10:32:35.855Z,32.45
2018-05-27T10:33:35.842Z,32.11
2018-05-27T10:34:35.825Z,32.15
2018-05-27T10:35:35.784Z,32.21
2018-05-27T10:36:35.784Z,32.08
2018-05-27T10:37:35.770Z,32.13
2018-05-27T10:38:35.716Z,31.57
2018-05-27T10:39:35.703Z,31.53
2018-05-27T10:40:35.671Z,31.19
2018-05-27T10:41:35.685Z,31.28
2018-05-27T10:42:35.628Z,31.29
2018-05-27T10:43:35.630Z,31.91
2018-05-27T10:44:48.319Z,32.00
2018-05-27T10:45:37.840Z,32.00
2018-05-27T10:46:35.590Z,31.96
2018-05-27T10:47:35.546Z,31.99
2018-05-27T10:48:35.510Z,32.06
2018-05-27T10:49:35.484Z,31.43
2018-05-27T10:50:35.479Z,31.36
2018-05-27T10:51:35.413Z,30.94
2018-05-27T10:52:35.391Z,30.22
2018-05-27T10:53:35.416Z,30.27
2018-05-27T10:54:35.390Z,30.37
2018-05-27T10:55:35.322Z,30.37
2018-05-27T10:56:35.294Z,30.57
2018-05-27T10:57:35.261Z,30.27
2018-05-27T10:58:35.279Z,30.10
2018-05-27T10:59:35.205Z,29.80
2018-05-27T11:00:35.186Z,29.97
2018-05-27T11:01:35.209Z,30.04
2018-05-27T11:02:35.145Z,30.24
2018-05-27T11:03:35.110Z,30.24
2018-05-27T11:04:35.100Z,29.83
2018-05-27T11:05:35.049Z,29.97
2018-05-27T11:06:35.034Z,30.00
2018-05-27T11:07:34.997Z,29.76
2018-05-27T11:08:34.963Z,29.57
2018-05-27T11:09:34.941Z,29.58
2018-05-27T11:10:34.935Z,29.70
2018-05-27T11:11:34.884Z,29.90
2018-05-27T11:12:34.877Z,30.07
2018-05-27T11:13:34.846Z,30.15
2018-05-27T11:14:34.831Z,30.15
2018-05-27T11:15:34.766Z,30.13
2018-05-27T11:16:34.768Z,30.00
2018-05-27T11:17:34.711Z,29.89
2018-05-27T11:18:34.690Z,29.95
2018-05-27T11:19:34.653Z,29.70
2018-05-27T11:20:34.619Z,29.63
2018-05-27T11:21:34.606Z,29.67
2018-05-27T11:22:34.609Z,29.55
2018-05-27T11:23:34.523Z,29.37
2018-05-27T11:24:34.536Z,29.53
2018-05-27T11:25:34.477Z,29.55
2018-05-27T11:26:34.447Z,29.57
2018-05-27T11:27:34.429Z,29.57
2018-05-27T11:28:34.420Z,29.39
2018-05-27T11:29:34.352Z,29.53
2018-05-27T11:30:34.328Z,29.52
2018-05-27T11:31:34.279Z,29.67
2018-05-27T11:32:34.263Z,29.61
2018-05-27T11:33:34.258Z,29.34
2018-05-27T11:34:34.249Z,29.18
2018-05-27T11:35:34.172Z,29.14
2018-05-27T11:36:34.138Z,29.05
2018-05-27T11:37:34.123Z,29.21
2018-05-27T11:38:34.098Z,29.21
2018-05-27T11:39:34.077Z,29.08
2018-05-27T11:40:34.036Z,29.09
2018-05-27T11:41:33.983Z,29.00
2018-05-27T11:42:33.968Z,29.04
2018-05-27T11:43:33.921Z,28.96
2018-05-27T11:44:44.271Z,28.90
2018-05-27T11:45:44.649Z,28.73
2018-05-27T11:46:33.832Z,28.59
2018-05-27T11:47:33.865Z,28.52
2018-05-27T11:48:33.775Z,28.36
2018-05-27T11:49:33.737Z,28.40
2018-05-27T11:50:33.759Z,28.24
2018-05-27T11:51:33.681Z,28.43
2018-05-27T11:52:33.655Z,28.49
2018-05-27T11:53:33.636Z,28.36
2018-05-27T11:54:33.618Z,28.39
2018-05-27T11:55:33.595Z,28.44
2018-05-27T11:56:33.553Z,28.34
2018-05-27T11:57:33.510Z,28.44
2018-05-27T11:58:33.503Z,28.36
2018-05-27T11:59:33.441Z,28.24
2018-05-27T12:00:33.405Z,28.18
2018-05-27T12:01:33.404Z,28.17
2018-05-27T12:02:33.360Z,28.24
2018-05-27T12:03:33.308Z,28.29
2018-05-27T12:04:41.725Z,28.27
2018-05-27T12:05:33.251Z,28.30
2018-05-27T12:06:33.214Z,28.34
2018-05-27T12:07:33.241Z,28.46
2018-05-27T12:08:33.175Z,28.46
2018-05-27T12:09:43.797Z,28.55
2018-05-27T12:10:33.092Z,28.41
2018-05-27T12:11:33.060Z,28.48
2018-05-27T12:12:33.949Z,28.44
2018-05-27T12:13:33.031Z,28.55
2018-05-27T12:14:32.996Z,28.54
2018-05-27T12:15:32.918Z,28.44
2018-05-27T12:16:32.888Z,28.71
2018-05-27T12:17:32.899Z,28.67
2018-05-27T12:18:32.836Z,28.81
2018-05-27T12:19:32.797Z,28.78
2018-05-27T12:20:32.792Z,28.86
2018-05-27T12:21:32.749Z,28.83
2018-05-27T12:22:32.704Z,28.71
2018-05-27T12:23:32.712Z,28.64
2018-05-27T12:24:32.638Z,28.66
2018-05-27T12:25:40.371Z,28.77
2018-05-27T12:26:32.582Z,28.86
2018-05-27T12:27:32.547Z,29.06
2018-05-27T12:28:32.527Z,29.08
2018-05-27T12:29:32.527Z,29.00
2018-05-27T12:30:32.444Z,29.08
2018-05-27T12:31:32.444Z,29.05
2018-05-27T12:32:32.408Z,28.96
2018-05-27T12:33:44.896Z,28.93
2018-05-27T12:34:32.322Z,28.80
2018-05-27T12:35:32.328Z,28.88
2018-05-27T12:36:32.764Z,28.86
2018-05-27T12:37:32.271Z,28.66
2018-05-27T12:38:32.208Z,28.68
2018-05-27T12:39:32.195Z,28.62
2018-05-27T12:40:32.143Z,28.64
2018-05-27T12:41:32.110Z,28.64
2018-05-27T12:42:32.088Z,28.77
2018-05-27T12:43:32.131Z,28.81
2018-05-27T12:44:32.024Z,28.73
2018-05-27T12:45:32.086Z,28.49
2018-05-27T12:46:31.968Z,28.48
2018-05-27T12:47:31.970Z,28.44
2018-05-27T12:48:31.907Z,28.51
2018-05-27T12:49:31.904Z,28.41
2018-05-27T12:50:31.857Z,28.43
2018-05-27T12:51:31.805Z,28.22
2018-05-27T12:52:31.831Z,28.11